Time;durP1;ratioP1;P1;durP2;ratioP2;P2;SDS_P1;SDS_P2;PMS_P1;PMS_P2;Temp;Humidity;BMP_temperature;BMP_pressure;BME280_temperature;BME280_humidity;BME280_pressure;Samples;Min_cycle;Max_cycle;Signal;HPM_P1;HPM_P2
2021/07/31 00:01:52;;;;;;;8.67;6.77;;;;;;;31.05;46.93;97492.59;5019034;28;20227;-77
2021/07/31 00:04:20;;;;;;;7.43;5.93;;;;;;;31.23;46.88;97495.97;5014029;28;20235;-76
2021/07/31 00:06:47;;;;;;;7.47;6.10;;;;;;;32.41;43.10;97503.44;5005939;28;20211;-77
2021/07/31 00:09:16;;;;;;;8.40;5.90;;;;;;;32.36;42.76;97512.00;5013264;28;20218;-77
2021/07/31 00:11:43;;;;;;;9.37;6.10;;;;;;;32.50;42.02;97515.97;5013813;28;20749;-77
2021/07/31 00:14:10;;;;;;;8.93;5.70;;;;;;;32.51;41.98;97513.97;5012557;28;20656;-76
2021/07/31 00:16:38;;;;;;;8.40;5.57;;;;;;;32.38;42.15;97516.00;5004815;28;20214;-77
2021/07/31 00:19:05;;;;;;;8.23;5.60;;;;;;;31.89;43.56;97513.78;5012183;28;20217;-76
2021/07/31 00:21:32;;;;;;;6.97;5.73;;;;;;;31.92;43.30;97510.31;5013636;28;20230;-77
2021/07/31 00:24:00;;;;;;;7.37;5.60;;;;;;;32.07;42.73;97518.66;5012771;28;20227;-77
2021/07/31 00:26:28;;;;;;;8.80;6.03;;;;;;;32.63;41.47;97505.63;5013224;28;20213;-76
2021/07/31 00:28:55;;;;;;;8.20;6.03;;;;;;;33.07;40.64;97512.69;5014549;28;20213;-77
2021/07/31 00:31:23;;;;;;;10.87;6.57;;;;;;;32.93;40.93;97515.91;5013091;28;20211;-77
2021/07/31 00:33:50;;;;;;;6.97;5.40;;;;;;;33.34;40.11;97512.59;5013014;28;20203;-76
2021/07/31 00:36:17;;;;;;;6.57;5.23;;;;;;;33.22;39.81;97523.75;5013025;28;20211;-77
2021/07/31 00:38:45;;;;;;;6.97;5.30;;;;;;;32.83;41.78;97526.72;5012667;28;20309;-77
2021/07/31 00:41:12;;;;;;;6.60;5.40;;;;;;;33.06;41.27;97517.44;5012785;28;20212;-76
2021/07/31 00:43:40;;;;;;;7.07;5.40;;;;;;;32.30;42.92;97521.69;5013177;28;20230;-77
2021/07/31 00:46:09;;;;;;;8.60;5.27;;;;;;;32.48;41.11;97521.00;5013256;28;20214;-77
2021/07/31 00:48:36;;;;;;;7.00;4.90;;;;;;;32.19;41.60;97523.34;5012553;28;20237;-77
2021/07/31 00:51:04;;;;;;;5.07;4.20;;;;;;;32.24;41.44;97518.34;5013027;28;20779;-77
2021/07/31 00:53:33;;;;;;;6.50;4.80;;;;;;;32.26;41.61;97518.84;5012464;28;20227;-77
2021/07/31 00:56:00;;;;;;;5.17;3.73;;;;;;;32.34;40.17;97526.16;5013013;28;20219;-77
2021/07/31 00:58:28;;;;;;;5.23;3.53;;;;;;;32.08;40.09;97533.28;5020259;28;20214;-77
2021/07/31 01:00:57;;;;;;;5.10;3.20;;;;;;;32.10;39.16;97539.25;5013002;28;20207;-77
2021/07/31 01:03:25;;;;;;;7.23;3.00;;;;;;;31.60;39.19;97536.13;5011698;28;20594;-77
2021/07/31 01:05:52;;;;;;;7.77;3.30;;;;;;;31.74;39.30;97536.59;5011886;28;20227;-77
2021/07/31 01:08:19;;;;;;;5.17;3.10;;;;;;;31.66;39.57;97526.44;5012773;28;20218;-77
2021/07/31 01:10:47;;;;;;;4.07;3.07;;;;;;;31.35;40.66;97524.31;5002252;28;20211;-76
2021/07/31 01:13:15;;;;;;;4.87;2.63;;;;;;;31.34;39.98;97530.19;5011733;28;20312;-76
2021/07/31 01:16:00;;;;;;;6.67;3.57;;;;;;;31.58;40.60;97530.16;5014952;28;20691;-77
2021/07/31 01:18:28;;;;;;;5.27;3.17;;;;;;;31.32;40.70;97530.53;5012513;28;20218;-78
2021/07/31 01:20:55;;;;;;;7.67;2.90;;;;;;;31.63;38.69;97538.97;5012654;28;20218;-76
2021/07/31 01:23:24;;;;;;;4.90;2.40;;;;;;;31.44;38.53;97543.50;5012298;28;20227;-76
2021/07/31 01:25:51;;;;;;;4.03;2.77;;;;;;;31.44;38.72;97538.81;5010757;28;20231;-77
2021/07/31 01:28:18;;;;;;;4.67;2.90;;;;;;;31.44;38.73;97540.75;5012191;28;20207;-77
2021/07/31 01:30:46;;;;;;;7.57;3.27;;;;;;;31.45;39.81;97537.66;5013844;28;20229;-77
2021/07/31 01:33:13;;;;;;;4.57;2.67;;;;;;;31.67;39.59;97539.91;5023450;22;20235;-70
2021/07/31 01:35:40;;;;;;;4.13;3.00;;;;;;;31.69;39.43;97545.09;5011449;28;20200;-70
2021/07/31 01:38:08;;;;;;;4.23;3.00;;;;;;;31.70;39.07;97539.22;5012280;28;20214;-68
2021/07/31 01:40:36;;;;;;;4.40;2.90;;;;;;;31.27;39.17;97530.75;5011953;28;20207;-68
2021/07/31 01:43:03;;;;;;;5.43;3.10;;;;;;;31.54;39.02;97543.03;5009297;28;20298;-70
2021/07/31 01:45:31;;;;;;;3.73;2.87;;;;;;;31.60;38.05;97544.41;5011347;28;20242;-70
2021/07/31 01:47:58;;;;;;;4.37;2.60;;;;;;;30.75;41.46;97537.25;5011647;28;20207;-70
2021/07/31 01:50:25;;;;;;;4.87;2.50;;;;;;;30.66;38.34;97542.84;5005452;28;20208;-69
2021/07/31 01:52:52;;;;;;;4.83;2.07;;;;;;;30.82;37.22;97541.03;5011711;28;20229;-71
2021/07/31 01:55:20;;;;;;;4.47;2.03;;;;;;;31.51;36.49;97546.47;5011259;28;20212;-70
2021/07/31 01:57:48;;;;;;;4.37;1.90;;;;;;;30.62;36.45;97541.91;5011765;28;20238;-70
2021/07/31 02:00:16;;;;;;;6.97;2.20;;;;;;;30.92;36.88;97546.09;5011267;28;20207;-70
2021/07/31 02:02:43;;;;;;;3.63;2.00;;;;;;;30.69;36.73;97544.94;5011569;28;20237;-70
2021/07/31 02:05:11;;;;;;;5.97;2.13;;;;;;;31.03;36.85;97540.97;5010843;28;20230;-71
2021/07/31 02:07:38;;;;;;;4.23;2.23;;;;;;;30.89;37.19;97543.25;5011348;28;20577;-70
2021/07/31 02:10:06;;;;;;;4.67;2.20;;;;;;;31.23;37.13;97542.84;5011304;28;20677;-70
2021/07/31 02:12:33;;;;;;;4.97;2.30;;;;;;;31.17;36.77;97546.94;5011279;28;20588;-70
2021/07/31 02:15:02;;;;;;;5.77;1.80;;;;;;;31.10;36.25;97549.47;5011037;28;20775;-70
2021/07/31 02:17:29;;;;;;;3.07;2.27;;;;;;;31.10;36.13;97550.28;5011392;28;20214;-70
2021/07/31 02:19:58;;;;;;;3.63;2.03;;;;;;;30.85;35.39;97547.81;5007665;28;20203;-70
2021/07/31 02:22:25;;;;;;;4.43;2.00;;;;;;;31.05;37.42;97544.97;5011452;28;20230;-70
2021/07/31 02:24:52;;;;;;;3.67;2.10;;;;;;;31.16;36.23;97545.34;5010683;28;20227;-70
2021/07/31 02:27:20;;;;;;;3.87;1.90;;;;;;;31.08;35.88;97546.25;5011842;28;20213;-70
2021/07/31 02:29:47;;;;;;;4.10;2.30;;;;;;;30.75;37.39;97548.25;5005638;28;20218;-70
2021/07/31 02:32:16;;;;;;;4.10;2.07;;;;;;;30.74;36.00;97553.00;5011081;28;20237;-70
2021/07/31 02:34:43;;;;;;;3.73;1.80;;;;;;;30.52;37.30;97538.78;5003479;28;20667;-70
2021/07/31 02:37:10;;;;;;;10.20;1.90;;;;;;;30.40;35.36;97547.81;5011175;28;20688;-70
2021/07/31 02:39:38;;;;;;;5.30;2.17;;;;;;;30.12;35.64;97545.97;5010778;28;20217;-68
2021/07/31 02:42:05;;;;;;;6.60;1.73;;;;;;;29.94;36.41;97547.25;5011219;28;20232;-68
2021/07/31 02:44:32;;;;;;;4.80;1.90;;;;;;;30.29;34.82;97549.38;5010863;28;20243;-68
2021/07/31 02:46:59;;;;;;;7.53;2.10;;;;;;;29.84;34.48;97553.16;5013967;28;20556;-68
2021/07/31 02:49:28;;;;;;;4.37;1.30;;;;;;;29.99;34.49;97558.06;5013792;28;20590;-68
2021/07/31 02:51:55;;;;;;;3.50;2.00;;;;;;;28.95;37.25;97545.25;5015050;28;20232;-70
2021/07/31 02:54:23;;;;;;;4.80;1.60;;;;;;;30.08;34.18;97548.59;5014821;28;20214;-67
2021/07/31 02:56:50;;;;;;;4.20;1.53;;;;;;;29.95;34.88;97546.13;5015047;28;20208;-67
2021/07/31 02:59:17;;;;;;;3.20;1.47;;;;;;;29.76;35.94;97552.09;5014512;28;20205;-68
2021/07/31 03:01:45;;;;;;;7.90;1.53;;;;;;;29.88;35.24;97545.81;5014854;28;20224;-68
2021/07/31 03:04:12;;;;;;;3.13;1.60;;;;;;;29.99;34.66;97549.81;5014009;28;20695;-70
2021/07/31 03:06:40;;;;;;;5.83;1.50;;;;;;;29.76;34.82;97548.53;5014320;28;20217;-68
2021/07/31 03:09:08;;;;;;;4.23;1.70;;;;;;;29.38;35.93;97553.25;5014788;28;20217;-68
2021/07/31 03:11:35;;;;;;;3.77;1.67;;;;;;;28.97;36.95;97547.66;5014133;28;20680;-67
2021/07/31 03:14:02;;;;;;;5.43;1.83;;;;;;;28.96;37.66;97551.53;5014481;28;20696;-68
2021/07/31 03:16:29;;;;;;;4.53;1.43;;;;;;;28.82;38.52;97542.69;5014174;28;20660;-68
2021/07/31 03:18:57;;;;;;;4.37;1.70;;;;;;;28.83;38.51;97545.09;5013739;28;20214;-67
2021/07/31 03:21:24;;;;;;;4.97;1.80;;;;;;;28.22;40.34;97539.28;5013700;28;20212;-68
2021/07/31 03:23:53;;;;;;;4.60;1.50;;;;;;;28.51;42.13;97533.91;5014445;28;20208;-68
2021/07/31 03:26:20;;;;;;;2.70;1.80;;;;;;;28.61;40.87;97531.63;5014238;28;20226;-68
2021/07/31 03:28:47;;;;;;;5.93;2.30;;;;;;;28.20;41.43;97528.63;5006490;28;20220;-67
2021/07/31 03:31:19;;;;;;;3.57;1.80;;;;;;;28.25;41.98;97533.13;5014311;28;20215;-69
2021/07/31 03:33:46;;;;;;;5.40;2.10;;;;;;;28.55;40.98;97524.69;5012411;28;20215;-69
2021/07/31 03:36:13;;;;;;;4.80;1.90;;;;;;;28.72;40.58;97534.81;5014297;28;20203;-69
2021/07/31 03:38:41;;;;;;;4.87;2.00;;;;;;;28.72;39.42;97538.38;5014296;28;20215;-69
2021/07/31 03:41:09;;;;;;;3.63;2.13;;;;;;;28.60;39.57;97532.75;5014196;28;20204;-67
2021/07/31 03:43:37;;;;;;;5.53;2.37;;;;;;;27.61;42.46;97536.84;5013645;28;20229;-68
2021/07/31 03:46:06;;;;;;;8.20;2.30;;;;;;;28.58;40.55;97537.75;5013591;28;20614;-67
2021/07/31 03:48:34;;;;;;;8.17;2.30;;;;;;;28.69;41.04;97530.78;5013578;28;20622;-67
2021/07/31 03:51:01;;;;;;;4.20;2.10;;;;;;;28.60;40.13;97538.25;5013946;28;20208;-69
2021/07/31 03:53:28;;;;;;;3.63;2.20;;;;;;;28.74;41.51;97527.06;5013595;28;20234;-69
2021/07/31 03:55:56;;;;;;;5.83;1.90;;;;;;;28.63;38.93;97542.28;5014048;28;20211;-69
2021/07/31 03:58:24;;;;;;;4.40;1.93;;;;;;;28.70;38.72;97537.91;5011211;28;20218;-69
2021/07/31 04:00:51;;;;;;;4.47;2.00;;;;;;;28.50;38.76;97537.78;5013844;28;20212;-69
2021/07/31 04:03:19;;;;;;;3.37;1.77;;;;;;;28.38;39.94;97534.91;5012223;28;20239;-67
2021/07/31 04:05:46;;;;;;;4.37;1.90;;;;;;;28.57;38.74;97538.91;5013425;28;20238;-67
2021/07/31 04:08:13;;;;;;;6.17;1.93;;;;;;;28.46;39.42;97531.34;5013485;28;20207;-67
2021/07/31 04:10:42;;;;;;;5.37;2.10;;;;;;;28.06;39.37;97538.16;5014565;28;20576;-67
2021/07/31 04:13:09;;;;;;;4.30;1.70;;;;;;;28.01;42.43;97536.38;5013140;28;20662;-67
2021/07/31 04:15:40;;;;;;;5.00;1.80;;;;;;;28.48;39.11;97535.38;5012542;28;20656;-67
2021/07/31 04:18:07;;;;;;;3.77;2.00;;;;;;;28.62;39.47;97533.22;5012367;28;20222;-67
2021/07/31 04:20:35;;;;;;;3.67;1.80;;;;;;;28.59;38.08;97544.84;5013498;28;20224;-66
2021/07/31 04:23:02;;;;;;;5.13;1.33;;;;;;;28.57;38.20;97541.66;5011973;28;20227;-68
2021/07/31 04:25:29;;;;;;;3.67;1.93;;;;;;;27.94;38.91;97547.06;5012956;28;20234;-68
2021/07/31 04:27:57;;;;;;;5.17;1.87;;;;;;;28.20;39.69;97553.31;5007125;28;20208;-67
2021/07/31 04:30:24;;;;;;;7.07;2.00;;;;;;;27.99;39.98;97554.31;5013542;28;20293;-67
2021/07/31 04:32:53;;;;;;;4.63;2.00;;;;;;;28.37;40.39;97549.75;5012802;28;20255;-68
2021/07/31 04:35:21;;;;;;;4.93;1.77;;;;;;;28.67;37.54;97554.19;5012902;28;20207;-69
2021/07/31 04:37:48;;;;;;;3.60;1.70;;;;;;;28.58;38.18;97561.69;5007066;28;20683;-68
2021/07/31 04:40:15;;;;;;;7.50;1.63;;;;;;;28.18;37.18;97569.28;5011914;28;20572;-68
2021/07/31 04:42:43;;;;;;;5.87;1.73;;;;;;;28.16;37.35;97573.50;5013055;28;20227;-65
2021/07/31 04:45:11;;;;;;;5.20;1.80;;;;;;;28.14;37.26;97571.09;5012826;28;20227;-69
2021/07/31 04:47:38;;;;;;;3.00;1.67;;;;;;;28.09;36.67;97576.75;5012902;28;20625;-69
2021/07/31 04:50:09;;;;;;;5.20;1.67;;;;;;;28.43;36.00;97584.97;5012712;28;20203;-70
2021/07/31 04:52:37;;;;;;;3.83;1.57;;;;;;;28.51;35.55;97583.31;5012243;28;20229;-69
2021/07/31 04:55:05;;;;;;;5.17;1.40;;;;;;;29.00;34.98;97586.31;5012480;28;20216;-67
2021/07/31 04:57:33;;;;;;;3.30;1.53;;;;;;;28.75;34.86;97583.59;5011947;28;20204;-67
2021/07/31 05:00:00;;;;;;;3.93;1.63;;;;;;;28.85;35.44;97588.75;5012514;28;20211;-67
2021/07/31 05:02:30;;;;;;;5.90;1.57;;;;;;;28.41;35.79;97591.91;5007275;28;20231;-67
2021/07/31 05:04:58;;;;;;;2.70;1.30;;;;;;;28.94;34.82;97592.28;5011474;28;20217;-68
2021/07/31 05:07:26;;;;;;;5.03;1.57;;;;;;;29.07;34.19;97596.75;5012290;28;20216;-67
2021/07/31 05:09:54;;;;;;;4.73;2.07;;;;;;;29.40;33.82;97603.25;5012130;28;20204;-67
2021/07/31 05:12:21;;;;;;;6.70;1.50;;;;;;;29.65;33.31;97596.84;5013032;28;20237;-67
2021/07/31 05:14:52;;;;;;;4.30;1.50;;;;;;;29.09;35.02;97594.50;5011097;28;20205;-67
2021/07/31 05:17:20;;;;;;;6.70;1.60;;;;;;;29.27;33.89;97596.84;5010952;28;20209;-67
2021/07/31 05:19:47;;;;;;;3.20;1.50;;;;;;;29.66;33.39;97596.50;5011406;28;20216;-68
2021/07/31 05:22:15;;;;;;;4.53;1.40;;;;;;;29.92;33.50;97591.63;5012535;28;20239;-71
2021/07/31 05:24:44;;;;;;;3.07;1.30;;;;;;;29.89;32.79;97592.28;5011380;28;20224;-75
2021/07/31 05:27:11;;;;;;;2.77;1.27;;;;;;;30.18;32.27;97600.50;5012918;28;20230;-70
2021/07/31 05:29:39;;;;;;;4.30;1.30;;;;;;;30.48;32.09;97604.78;5012381;28;20661;-74
2021/07/31 05:32:07;;;;;;;2.27;1.30;;;;;;;29.88;33.02;97603.63;5012107;28;20240;-71
2021/07/31 05:34:34;;;;;;;4.33;1.33;;;;;;;29.97;33.00;97607.94;5011750;28;20205;-69
2021/07/31 05:37:01;;;;;;;2.87;1.30;;;;;;;29.97;32.78;97612.63;5011805;28;20585;-69
2021/07/31 05:39:33;;;;;;;5.37;1.53;;;;;;;30.26;32.45;97609.84;5006021;28;20694;-69
2021/07/31 05:42:04;;;;;;;3.27;1.30;;;;;;;30.51;32.26;97606.03;5011596;28;20250;-69
2021/07/31 05:44:32;;;;;;;4.97;1.20;;;;;;;30.68;31.90;97603.94;5011783;28;20223;-69
2021/07/31 05:47:00;;;;;;;2.27;1.43;;;;;;;30.94;31.89;97609.16;5011833;28;20291;-68
2021/07/31 05:49:30;;;;;;;6.30;1.60;;;;;;;31.02;31.45;97609.06;5011791;28;20216;-69
2021/07/31 05:51:58;;;;;;;2.63;1.30;;;;;;;30.88;31.14;97607.78;5011102;28;20223;-69
2021/07/31 05:54:25;;;;;;;3.43;1.30;;;;;;;30.62;31.62;97613.56;5008414;28;20219;-69
2021/07/31 05:56:52;;;;;;;4.27;1.27;;;;;;;30.93;31.45;97604.81;5011884;28;20203;-69
2021/07/31 05:59:21;;;;;;;4.70;1.70;;;;;;;30.25;32.39;97605.47;5011463;28;20211;-69
2021/07/31 06:01:48;;;;;;;5.57;1.33;;;;;;;29.74;33.41;97606.63;5010802;28;20230;-69
2021/07/31 06:04:15;;;;;;;4.03;1.50;;;;;;;30.76;31.96;97611.31;5011456;28;20638;-69
2021/07/31 06:06:43;;;;;;;6.53;1.47;;;;;;;30.82;31.64;97607.19;5010504;28;20227;-69
2021/07/31 06:09:10;;;;;;;4.63;1.70;;;;;;;31.55;31.24;97608.09;5005959;28;20214;-69
2021/07/31 06:11:37;;;;;;;4.63;1.43;;;;;;;31.04;32.05;97600.47;5011251;28;20223;-68
2021/07/31 06:14:04;;;;;;;4.17;1.70;;;;;;;31.47;31.51;97598.78;5011348;28;20207;-69
2021/07/31 06:16:33;;;;;;;4.40;1.40;;;;;;;31.60;31.14;97605.09;5010855;28;20210;-69
2021/07/31 06:19:00;;;;;;;6.10;1.70;;;;;;;30.06;33.67;97602.38;5011911;28;20203;-69
2021/07/31 06:21:28;;;;;;;3.27;1.50;;;;;;;28.75;36.24;97605.56;5009197;28;20206;-69
2021/07/31 06:23:55;;;;;;;6.80;1.70;;;;;;;30.97;33.05;97601.00;5004064;28;20577;-69
2021/07/31 06:26:22;;;;;;;3.97;1.50;;;;;;;31.45;31.86;97614.06;5010603;28;20600;-69
2021/07/31 06:28:49;;;;;;;2.20;1.40;;;;;;;31.37;31.99;97613.03;5011579;28;20211;-68
2021/07/31 06:31:17;;;;;;;3.07;1.33;;;;;;;32.22;30.76;97616.50;5010165;28;20230;-70
2021/07/31 06:33:45;;;;;;;3.73;1.30;;;;;;;31.66;31.39;97614.75;5011379;28;20218;-72
2021/07/31 06:36:12;;;;;;;3.77;1.80;;;;;;;31.45;31.49;97609.38;5009703;28;20214;-66
2021/07/31 06:38:40;;;;;;;2.83;1.30;;;;;;;32.37;29.96;97624.09;5010834;28;20217;-69
2021/07/31 06:41:07;;;;;;;6.53;1.50;;;;;;;31.80;30.77;97613.28;5011173;28;20668;-73
2021/07/31 06:43:34;;;;;;;3.60;1.40;;;;;;;31.73;31.17;97621.34;5010778;28;20227;-70
2021/07/31 06:46:10;;;;;;;3.47;1.50;;;;;;;31.04;31.07;97617.81;5011188;28;20230;-71
2021/07/31 06:48:38;;;;;;;5.83;1.60;;;;;;;30.67;31.98;97618.88;5009935;28;20215;-75
2021/07/31 06:51:06;;;;;;;2.80;1.30;;;;;;;31.63;29.83;97630.03;5008335;28;20222;-69
2021/07/31 06:53:33;;;;;;;5.60;1.57;;;;;;;30.50;31.29;97629.22;5010882;28;20243;-69
2021/07/31 06:56:01;;;;;;;5.90;1.53;;;;;;;30.86;30.88;97621.91;5011757;28;20214;-72
2021/07/31 06:58:28;;;;;;;4.63;1.70;;;;;;;31.63;30.64;97621.78;5011177;28;20214;-73
2021/07/31 07:00:56;;;;;;;4.47;1.40;;;;;;;32.61;28.82;97618.47;5011460;28;20207;-76
2021/07/31 07:03:23;;;;;;;4.45;1.50;;;;;;;32.83;27.47;97618.75;5010588;28;21304;-76
2021/07/31 07:05:50;;;;;;;5.50;1.43;;;;;;;31.91;28.20;97627.41;5009915;28;20227;-71
2021/07/31 07:08:19;;;;;;;5.90;1.47;;;;;;;32.51;27.83;97632.78;5010435;28;20208;-73
2021/07/31 07:10:46;;;;;;;4.90;1.30;;;;;;;32.27;27.64;97616.28;5011359;28;20250;-76
2021/07/31 07:13:14;;;;;;;4.43;1.63;;;;;;;32.96;27.29;97614.75;5011829;28;20231;-77
2021/07/31 07:15:41;;;;;;;3.93;1.33;;;;;;;32.41;28.06;97625.00;5011467;28;20203;-77
2021/07/31 07:18:09;;;;;;;3.03;1.20;;;;;;;31.36;29.18;97622.47;5011665;28;20215;-74
2021/07/31 07:20:36;;;;;;;4.23;1.20;;;;;;;32.03;28.23;97619.13;5010920;28;20237;-76
2021/07/31 07:23:03;;;;;;;3.60;1.57;;;;;;;32.22;28.21;97614.56;5011572;28;20242;-76
2021/07/31 07:25:32;;;;;;;4.47;1.67;;;;;;;32.31;27.95;97617.22;5010542;28;20231;-75
2021/07/31 07:28:00;;;;;;;5.83;1.37;;;;;;;31.31;29.51;97617.19;5011659;28;20574;-74
2021/07/31 07:30:27;;;;;;;5.23;1.50;;;;;;;31.96;28.75;97616.94;5011449;28;20210;-75
2021/07/31 07:32:55;;;;;;;5.50;1.40;;;;;;;30.62;30.72;97612.72;5035366;22;20697;-78
2021/07/31 07:35:23;;;;;;;4.27;1.50;;;;;;;31.18;29.96;97611.97;5038498;28;20923;-77
2021/07/31 07:37:50;;;;;;;6.63;1.40;;;;;;;31.07;29.33;97610.81;5035852;28;20295;-74
2021/07/31 07:40:17;;;;;;;4.60;1.30;;;;;;;30.97;30.26;97603.78;5034535;28;20217;-75
2021/07/31 07:42:46;;;;;;;6.40;1.67;;;;;;;31.71;29.61;97607.06;5038761;28;20234;-77
2021/07/31 07:45:13;;;;;;;6.73;1.70;;;;;;;32.10;29.30;97611.84;5038237;28;20213;-78
2021/07/31 07:47:40;;;;;;;7.40;1.67;;;;;;;32.52;28.74;97606.75;5026490;28;20256;-80
2021/07/31 07:50:08;;;;;;;3.43;1.53;;;;;;;33.59;27.26;97610.84;5029487;28;20209;-77
2021/07/31 07:52:36;;;;;;;13.07;2.13;;;;;;;31.21;29.66;97611.31;5019018;28;20230;-77
2021/07/31 07:55:03;;;;;;;4.77;1.33;;;;;;;32.82;28.43;97611.59;5031145;28;20208;-78
2021/07/31 07:57:31;;;;;;;4.17;1.50;;;;;;;32.64;28.14;97623.31;5026496;28;20208;-76
2021/07/31 07:59:59;;;;;;;2.27;1.10;;;;;;;32.21;27.64;97625.97;5028614;28;20219;-78
2021/07/31 08:02:27;;;;;;;3.03;1.33;;;;;;;32.72;27.16;97616.81;5025216;28;20228;-76
2021/07/31 08:04:54;;;;;;;4.60;1.47;;;;;;;31.79;27.86;97613.63;5021841;28;20226;-77
2021/07/31 08:07:21;;;;;;;5.27;1.50;;;;;;;33.54;26.51;97610.34;5032968;28;20600;-76
2021/07/31 08:09:48;;;;;;;5.13;1.20;;;;;;;32.85;26.99;97621.16;5015814;28;20237;-77
2021/07/31 08:12:16;;;;;;;2.77;1.23;;;;;;;33.12;25.80;97618.34;5012100;28;20226;-76
2021/07/31 08:14:43;;;;;;;2.87;1.20;;;;;;;32.87;26.09;97629.88;5019836;28;20205;-75
2021/07/31 08:17:12;;;;;;;4.57;1.47;;;;;;;32.38;26.76;97625.72;5015148;28;20668;-70
2021/07/31 08:19:40;;;;;;;2.63;1.10;;;;;;;32.54;26.76;97623.81;5014593;28;20205;-77
2021/07/31 08:22:07;;;;;;;4.47;1.73;;;;;;;32.97;26.60;97623.84;5019199;28;20199;-74
2021/07/31 08:24:34;;;;;;;2.87;1.50;;;;;;;32.60;27.15;97617.69;5024505;28;20202;-77
2021/07/31 08:27:01;;;;;;;10.50;1.60;;;;;;;32.27;26.70;97624.59;5025586;28;20223;-77
2021/07/31 08:29:29;;;;;;;3.77;1.30;;;;;;;31.53;28.40;97613.97;5031266;28;20209;-76
2021/07/31 08:31:56;;;;;;;4.13;1.70;;;;;;;34.13;25.93;97614.50;5021551;28;20205;-77
2021/07/31 08:34:24;;;;;;;3.00;1.60;;;;;;;34.45;24.74;97617.97;5019620;28;20229;-75
2021/07/31 08:36:52;;;;;;;7.13;1.30;;;;;;;33.02;27.06;97616.09;5008616;28;20216;-76
2021/07/31 08:39:19;;;;;;;2.27;1.10;;;;;;;33.49;25.71;97616.16;5020299;28;20209;-76
2021/07/31 08:41:47;;;;;;;3.80;1.20;;;;;;;34.33;24.42;97622.88;5011923;28;20306;-76
2021/07/31 08:44:15;;;;;;;5.37;1.33;;;;;;;32.22;27.15;97613.75;5021245;28;21062;-76
2021/07/31 08:46:44;;;;;;;5.37;1.33;;;;;;;33.59;25.80;97616.38;5015433;28;20237;-76
2021/07/31 08:49:13;;;;;;;3.65;1.40;;;;;;;32.99;26.78;97616.00;5020297;28;20575;-77
2021/07/31 08:51:42;;;;;;;2.97;1.30;;;;;;;33.25;26.38;97619.06;5011383;28;20576;-76
2021/07/31 08:54:09;;;;;;;4.63;1.20;;;;;;;34.36;25.24;97614.63;5013772;28;20239;-75
2021/07/31 08:56:37;;;;;;;3.67;1.40;;;;;;;34.45;25.14;97612.44;5017686;28;20563;-75
2021/07/31 08:59:04;;;;;;;4.47;1.63;;;;;;;35.20;24.05;97621.81;5025277;28;20685;-76
2021/07/31 09:01:31;;;;;;;2.23;1.40;;;;;;;33.46;25.93;97616.84;5020554;28;20202;-74
2021/07/31 09:04:11;;;;;;;1.97;1.17;;;;;;;33.67;25.71;97620.13;5021031;28;20234;-73
2021/07/31 09:06:39;;;;;;;3.47;1.40;;;;;;;33.96;24.79;97625.19;5006382;28;20225;-73
2021/07/31 09:09:07;;;;;;;3.33;1.30;;;;;;;31.90;26.84;97621.09;5023796;28;20216;-72
2021/07/31 09:11:35;;;;;;;8.23;1.60;;;;;;;31.16;28.87;97600.50;5008650;28;20225;-73
2021/07/31 09:14:12;;;;;;;4.13;1.20;;;;;;;31.24;29.23;97599.59;5019651;28;20249;-74
2021/07/31 09:16:41;;;;;;;2.17;1.03;;;;;;;30.78;29.36;97600.78;5009531;28;20216;-74
2021/07/31 09:19:10;;;;;;;5.83;1.60;;;;;;;33.17;26.76;97595.13;5014833;28;20229;-75
2021/07/31 09:21:40;;;;;;;3.10;1.50;;;;;;;32.19;27.93;97595.13;5015292;28;20210;-74
2021/07/31 09:24:16;;;;;;;10.17;1.40;;;;;;;34.00;26.01;97601.16;5020017;28;20268;-74
2021/07/31 09:26:47;;;;;;;5.90;1.37;;;;;;;33.36;26.63;97601.59;5011804;28;20701;-77
2021/07/31 09:29:16;;;;;;;4.63;1.30;;;;;;;33.57;26.44;97596.59;5017020;28;20263;-74
2021/07/31 09:31:54;;;;;;;3.33;1.20;;;;;;;33.71;26.40;97591.34;5017563;28;20198;-73
2021/07/31 09:34:29;;;;;;;3.50;1.50;;;;;;;32.91;27.34;97592.91;5015705;28;20215;-73
2021/07/31 09:37:11;;;;;;;4.87;1.43;;;;;;;32.90;26.99;97588.53;5011011;28;20208;-74
2021/07/31 09:39:51;;;;;;;2.03;1.20;;;;;;;32.33;27.51;97596.38;5026348;28;20202;-74
2021/07/31 09:42:29;;;;;;;4.10;1.53;;;;;;;33.57;26.29;97581.94;5024597;28;20292;-74
2021/07/31 09:44:57;;;;;;;4.73;1.80;;;;;;;33.39;26.45;97589.81;5020702;28;20293;-75
2021/07/31 09:47:25;;;;;;;1.53;1.20;;;;;;;34.50;24.88;97590.78;5020444;28;20685;-74
2021/07/31 09:49:53;;;;;;;5.18;1.35;;;;;;;33.86;25.07;97595.28;5012904;28;20202;-71
2021/07/31 09:52:21;;;;;;;4.63;1.53;;;;;;;34.30;25.20;97596.69;5017667;28;20230;-74
2021/07/31 09:54:51;;;;;;;3.80;1.40;;;;;;;32.62;26.62;97590.50;5018001;28;20211;-75
2021/07/31 09:57:18;;;;;;;3.77;1.30;;;;;;;33.05;25.87;97593.25;5023877;28;20202;-74
2021/07/31 09:59:47;;;;;;;4.17;1.60;;;;;;;33.59;25.62;97585.94;5024274;28;20698;-76
2021/07/31 10:02:17;;;;;;;4.73;1.40;;;;;;;33.31;25.95;97574.22;5031134;28;20236;-76
2021/07/31 10:04:44;;;;;;;1.40;1.00;;;;;;;34.81;25.51;97581.50;5012652;28;20305;-74
2021/07/31 10:07:12;;;;;;;3.23;1.30;;;;;;;33.58;24.95;97572.44;5024706;28;20684;-71
2021/07/31 10:09:45;;;;;;;5.83;1.53;;;;;;;35.69;23.20;97574.66;5031137;28;20210;-74
2021/07/31 10:12:15;;;;;;;4.22;1.33;;;;;;;36.96;21.95;97577.94;5029068;28;20293;-75
2021/07/31 10:14:43;;;;;;;2.92;1.50;;;;;;;37.55;21.35;97572.97;5014853;28;20206;-72
2021/07/31 10:17:11;;;;;;;4.43;1.13;;;;;;;36.39;21.25;97582.06;5011323;28;20219;-74
2021/07/31 10:19:40;;;;;;;3.70;1.17;;;;;;;35.12;22.71;97572.94;5012888;28;20214;-76
2021/07/31 10:22:08;;;;;;;4.40;1.27;;;;;;;36.65;20.94;97575.63;5025697;28;20437;-78
2021/07/31 10:25:07;;;;;;;4.55;1.38;;;;;;;36.11;21.80;97575.31;5023461;28;20462;-74
2021/07/31 10:27:37;;;;;;;3.60;1.17;;;;;;;33.06;23.83;97575.53;5012242;28;20223;-76
2021/07/31 10:30:06;;;;;;;1.77;0.80;;;;;;;35.33;21.54;97578.88;5017873;28;20291;-77
2021/07/31 10:32:47;;;;;;;4.05;1.38;;;;;;;35.96;21.46;97573.53;5018331;28;20615;-75
2021/07/31 10:35:38;;;;;;;3.10;1.40;;;;;;;34.40;22.13;97580.28;5015910;28;20286;-77
2021/07/31 10:38:07;;;;;;;3.13;1.20;;;;;;;35.84;22.04;97576.50;4997578;28;20591;-77
2021/07/31 10:40:56;;;;;;;2.20;0.93;;;;;;;35.67;21.21;97583.41;5022044;28;20199;-77
2021/07/31 10:43:27;;;;;;;3.08;1.10;;;;;;;35.14;21.52;97584.47;5016279;28;20287;-77
2021/07/31 10:46:21;;;;;;;2.05;1.10;;;;;;;36.00;20.83;97591.03;5032426;28;20195;-77
2021/07/31 10:48:48;;;;;;;2.20;1.20;;;;;;;37.14;19.63;97585.34;5007230;28;20231;-77
2021/07/31 10:51:43;;;;;;;2.83;1.00;;;;;;;35.27;21.34;97580.38;5020256;28;20214;-76
2021/07/31 10:54:11;;;;;;;4.05;1.30;;;;;;;36.12;20.65;97579.69;5008061;28;20235;-76
2021/07/31 10:56:58;;;;;;;2.25;0.90;;;;;;;34.00;22.13;97584.53;5014115;28;20222;-82
2021/07/31 10:59:27;;;;;;;5.80;1.00;;;;;;;35.59;20.61;97591.97;5019456;28;20210;-74
2021/07/31 11:02:31;;;;;;;2.33;1.25;;;;;;;35.87;21.08;97587.66;5025764;28;20204;-74
2021/07/31 11:05:00;;;;;;;2.97;1.15;;;;;;;36.50;20.27;97590.53;5013956;28;20211;-75
2021/07/31 11:07:29;;;;;;;3.38;1.40;;;;;;;36.11;20.79;97581.66;5013717;28;20231;-73
2021/07/31 11:10:34;;;;;;;2.13;1.20;;;;;;;37.85;19.31;97581.13;5016724;28;20211;-73
2021/07/31 11:13:02;;;;;;;5.28;1.25;;;;;;;38.27;18.55;97575.81;5008190;28;20230;-75
2021/07/31 11:15:30;;;;;;;2.30;1.10;;;;;;;37.02;19.79;97593.91;5023708;28;20207;-77
2021/07/31 11:18:00;;;;;;;3.28;1.30;;;;;;;35.60;20.28;97599.16;5009178;28;20212;-78
2021/07/31 11:20:33;;;;;;;1.95;1.02;;;;;;;34.66;21.35;97590.69;5021481;28;20207;-76
2021/07/31 11:23:08;;;;;;;3.22;1.40;;;;;;;33.76;22.54;97582.75;5024282;28;20408;-75
2021/07/31 11:25:36;;;;;;;2.47;1.08;;;;;;;35.89;20.38;97581.75;5022874;28;20265;-76
2021/07/31 11:28:08;;;;;;;5.05;1.30;;;;;;;36.40;20.59;97588.41;5009739;28;20230;-78
2021/07/31 11:30:42;;;;;;;2.40;1.20;;;;;;;35.98;20.50;97591.44;5029597;28;20235;-76
2021/07/31 11:33:30;;;;;;;1.85;1.10;;;;;;;36.39;19.67;97598.75;5011184;28;20236;-77
2021/07/31 11:35:59;;;;;;;3.25;1.10;;;;;;;35.65;20.69;97587.72;5023150;28;20206;-77
2021/07/31 11:38:34;;;;;;;4.03;1.30;;;;;;;35.71;20.60;97581.44;5019624;28;20204;-76
2021/07/31 11:41:04;;;;;;;1.30;1.10;;;;;;;36.56;20.24;97594.59;5016630;28;20294;-75
2021/07/31 11:43:43;;;;;;;1.75;0.98;;;;;;;37.43;19.22;97581.59;5013731;28;20224;-76